createdAt,value
2023-03-25T00:01:16.035Z,99300.41
2023-03-25T00:03:42.514Z,99300.19
2023-03-25T00:06:08.955Z,99300.63
2023-03-25T00:08:35.585Z,99307.44
2023-03-25T00:11:02.071Z,99295.66
2023-03-25T00:13:28.513Z,99287.88
2023-03-25T00:15:58.385Z,99300.22
2023-03-25T00:18:25.144Z,99288.81
2023-03-25T00:20:51.637Z,99289.75
2023-03-25T00:23:18.059Z,99294.69
2023-03-25T00:25:45.332Z,99291.59
2023-03-25T00:28:11.757Z,99282.78
2023-03-25T00:30:38.242Z,99286.31
2023-03-25T00:33:04.762Z,99273.91
2023-03-25T00:35:31.330Z,99271.78
2023-03-25T00:38:00.382Z,99267.94
2023-03-25T00:40:28.567Z,99273.38
2023-03-25T00:42:55.025Z,99273.38
2023-03-25T00:45:21.469Z,99265.38
2023-03-25T00:47:47.926Z,99270.63
2023-03-25T00:50:14.358Z,99257.94
2023-03-25T00:52:41.514Z,99276.78
2023-03-25T00:55:07.949Z,99273.88
2023-03-25T00:57:34.371Z,99265.19
2023-03-25T01:00:00.898Z,99270.09
2023-03-25T01:02:27.355Z,99272.31
2023-03-25T01:04:53.857Z,99266.81
2023-03-25T01:07:20.645Z,99260.34
2023-03-25T01:09:47.633Z,99275.41
2023-03-25T01:12:14.133Z,99270.78
2023-03-25T01:14:40.691Z,99260.50
2023-03-25T01:17:07.130Z,99261.22
2023-03-25T01:19:33.540Z,99259.47
2023-03-25T01:21:59.994Z,99255.44
2023-03-25T01:24:26.406Z,99250.16
2023-03-25T01:26:52.812Z,99248.09
2023-03-25T01:29:19.260Z,99253.97
2023-03-25T01:31:45.730Z,99240.22
2023-03-25T01:34:12.145Z,99248.25
2023-03-25T01:36:40.186Z,99244.28
2023-03-25T01:39:06.678Z,99225.84
2023-03-25T01:41:42.616Z,99236.50
2023-03-25T01:44:15.204Z,99224.66
2023-03-25T01:46:45.136Z,99217.91
2023-03-25T01:49:11.631Z,99223.56
2023-03-25T01:51:38.043Z,99221.75
2023-03-25T01:54:04.481Z,99221.00
2023-03-25T01:56:32.050Z,99225.53
2023-03-25T01:58:58.505Z,99205.59
2023-03-25T02:01:26.844Z,99208.00
2023-03-25T02:03:53.438Z,99199.31
2023-03-25T02:06:19.863Z,99204.59
2023-03-25T02:08:47.130Z,99198.41
2023-03-25T02:11:13.535Z,99200.13
2023-03-25T02:13:39.977Z,99204.53
2023-03-25T02:16:06.455Z,99201.56
2023-03-25T02:18:32.907Z,99211.25
2023-03-25T02:20:59.368Z,99206.59
2023-03-25T02:23:28.609Z,99205.72
2023-03-25T02:25:55.164Z,99206.59
2023-03-25T02:28:26.305Z,99196.22
2023-03-25T02:30:52.850Z,99198.00
2023-03-25T02:33:19.304Z,99201.75
2023-03-25T02:35:50.148Z,99196.41
2023-03-25T02:38:17.507Z,99189.78
2023-03-25T02:40:43.933Z,99200.94
2023-03-25T02:43:10.379Z,99193.75
2023-03-25T02:45:36.842Z,99187.28
2023-03-25T02:48:03.339Z,99183.81
2023-03-25T02:50:29.824Z,99179.56
2023-03-25T02:52:56.431Z,99177.97
2023-03-25T02:55:22.912Z,99176.06
2023-03-25T02:57:49.423Z,99173.66
2023-03-25T03:00:15.981Z,99177.91
2023-03-25T03:02:43.421Z,99185.16
2023-03-25T03:05:09.908Z,99182.03
2023-03-25T03:07:36.638Z,99180.28
2023-03-25T03:10:03.051Z,99185.63
2023-03-25T03:12:29.510Z,99188.91
2023-03-25T03:14:56.133Z,99187.28
2023-03-25T03:17:22.636Z,99198.31
2023-03-25T03:19:49.158Z,99189.62
2023-03-25T03:22:15.610Z,99190.59
2023-03-25T03:24:42.312Z,99185.25
2023-03-25T03:27:08.747Z,99184.75
2023-03-25T03:29:35.840Z,99193.81
2023-03-25T03:32:05.598Z,99191.03
2023-03-25T03:34:34.919Z,99192.16
2023-03-25T03:37:01.349Z,99186.16
2023-03-25T03:39:27.849Z,99189.25
2023-03-25T03:41:54.269Z,99186.97
2023-03-25T03:44:20.871Z,99183.69
2023-03-25T03:46:47.376Z,99182.06
2023-03-25T03:49:13.856Z,99189.41
2023-03-25T03:51:40.263Z,99196.25
2023-03-25T03:54:06.708Z,99198.75
2023-03-25T03:56:37.424Z,99202.50
2023-03-25T03:59:04.165Z,99200.03
2023-03-25T04:01:30.840Z,99198.63
2023-03-25T04:03:57.400Z,99202.53
2023-03-25T04:06:24.794Z,99210.84
2023-03-25T04:08:52.002Z,99213.00
2023-03-25T04:11:18.554Z,99211.16
2023-03-25T04:13:44.957Z,99208.37
2023-03-25T04:16:11.909Z,99212.19
2023-03-25T04:18:40.095Z,99201.91
2023-03-25T04:21:06.511Z,99212.69
2023-03-25T04:23:34.330Z,99209.91
2023-03-25T04:26:03.208Z,99211.22
2023-03-25T04:28:29.891Z,99215.34
2023-03-25T04:30:57.712Z,99213.00
2023-03-25T04:33:24.251Z,99222.97
2023-03-25T04:35:51.796Z,99207.91
2023-03-25T04:38:18.427Z,99216.22
2023-03-25T04:40:46.903Z,99213.72
2023-03-25T04:43:13.420Z,99213.50
2023-03-25T04:45:42.789Z,99217.16
2023-03-25T04:48:14.991Z,99220.38
2023-03-25T04:50:41.445Z,99215.97
2023-03-25T04:53:08.797Z,99217.38
2023-03-25T04:55:35.756Z,99215.75
2023-03-25T04:58:02.236Z,99216.28
2023-03-25T05:00:28.697Z,99210.34
2023-03-25T05:02:55.228Z,99213.12
2023-03-25T05:05:21.669Z,99217.47
2023-03-25T05:07:49.714Z,99205.50
2023-03-25T05:10:16.122Z,99207.44
2023-03-25T05:12:42.574Z,99204.94
2023-03-25T05:15:09.050Z,99211.75
2023-03-25T05:17:35.653Z,99224.25
2023-03-25T05:20:02.179Z,99229.25
2023-03-25T05:22:28.620Z,99221.88
2023-03-25T05:24:56.526Z,99223.66
2023-03-25T05:27:22.949Z,99237.38
2023-03-25T05:29:49.413Z,99233.19
2023-03-25T05:32:18.939Z,99226.84
2023-03-25T05:34:48.382Z,99240.22
2023-03-25T05:37:14.801Z,99228.84
2023-03-25T05:39:41.221Z,99229.88
2023-03-25T05:42:07.720Z,99233.63
2023-03-25T05:44:34.153Z,99238.50
2023-03-25T05:47:03.580Z,99243.78
2023-03-25T05:49:30.036Z,99233.75
2023-03-25T05:51:57.200Z,99228.63
2023-03-25T05:54:26.748Z,99238.53
2023-03-25T05:56:53.249Z,99234.50
2023-03-25T05:59:20.643Z,99228.19
2023-03-25T06:01:47.094Z,99246.03
2023-03-25T06:04:13.648Z,99241.31
2023-03-25T06:06:40.349Z,99255.69
2023-03-25T06:09:06.960Z,99252.97
2023-03-25T06:11:38.688Z,99251.25
2023-03-25T06:14:05.369Z,99254.78
2023-03-25T06:16:33.327Z,99254.19
2023-03-25T06:19:00.800Z,99271.94
2023-03-25T06:21:27.211Z,99264.31
2023-03-25T06:23:54.032Z,99264.91
2023-03-25T06:26:20.640Z,99271.88
2023-03-25T06:28:47.108Z,99268.16
2023-03-25T06:31:13.580Z,99279.06
2023-03-25T06:33:43.532Z,99283.16
2023-03-25T06:36:11.618Z,99283.84
2023-03-25T06:38:38.100Z,99275.22
2023-03-25T06:41:04.544Z,99281.91
2023-03-25T06:43:31.046Z,99275.28
2023-03-25T06:45:57.558Z,99276.72
2023-03-25T06:48:24.043Z,99270.78
2023-03-25T06:50:50.572Z,99278.41
2023-03-25T06:53:17.149Z,99276.47
2023-03-25T06:55:45.098Z,99274.94
2023-03-25T06:58:11.500Z,99286.75
2023-03-25T07:00:37.924Z,99270.22
2023-03-25T07:03:04.385Z,99275.66
2023-03-25T07:05:30.845Z,99281.09
2023-03-25T07:07:57.312Z,99275.94
2023-03-25T07:10:23.742Z,99278.81
2023-03-25T07:12:50.153Z,99275.34
2023-03-25T07:15:16.588Z,99288.41
2023-03-25T07:17:43.399Z,99283.25
2023-03-25T07:20:11.777Z,99284.13
2023-03-25T07:22:38.987Z,99282.19
2023-03-25T07:25:05.479Z,99281.66
2023-03-25T07:27:31.898Z,99287.19
2023-03-25T07:29:58.403Z,99288.38
2023-03-25T07:32:24.912Z,99290.91
2023-03-25T07:34:51.442Z,99280.84
2023-03-25T07:37:17.991Z,99282.34
2023-03-25T07:39:44.423Z,99276.72
2023-03-25T07:42:11.072Z,99278.06
2023-03-25T07:44:37.516Z,99282.78
2023-03-25T07:47:03.949Z,99286.19
2023-03-25T07:49:30.398Z,99296.44
2023-03-25T07:51:56.836Z,99304.53
2023-03-25T07:54:24.619Z,99292.00
2023-03-25T07:56:53.045Z,99314.28
2023-03-25T07:59:19.524Z,99303.47
2023-03-25T08:01:46.309Z,99308.50
2023-03-25T08:04:14.046Z,99311.12
2023-03-25T08:06:40.467Z,99319.09
2023-03-25T08:09:07.570Z,99318.88
2023-03-25T08:11:34.538Z,99323.03
2023-03-25T08:14:01.039Z,99327.97
2023-03-25T08:16:27.699Z,99333.88
2023-03-25T08:18:54.263Z,99331.00
2023-03-25T08:21:25.758Z,99333.41
2023-03-25T08:23:52.505Z,99325.19
2023-03-25T08:26:19.023Z,99327.63
2023-03-25T08:28:47.622Z,99324.59
2023-03-25T08:31:15.479Z,99321.91
2023-03-25T08:33:43.090Z,99324.97
2023-03-25T08:36:10.840Z,99336.28
2023-03-25T08:38:37.328Z,99326.22
2023-03-25T08:41:03.766Z,99339.66
2023-03-25T08:43:30.232Z,99336.09
2023-03-25T08:45:56.690Z,99358.22
2023-03-25T08:48:24.659Z,99364.41
2023-03-25T08:50:51.063Z,99362.69
2023-03-25T08:53:17.526Z,99365.56
2023-03-25T08:55:44.240Z,99368.41
2023-03-25T08:58:10.781Z,99368.72
2023-03-25T09:00:38.012Z,99372.88
2023-03-25T09:03:04.498Z,99395.00
2023-03-25T09:05:30.998Z,99384.13
2023-03-25T09:07:57.491Z,99386.97
2023-03-25T09:10:23.911Z,99395.06
2023-03-25T09:12:50.461Z,99390.28
2023-03-25T09:15:16.899Z,99387.72
2023-03-25T09:17:43.369Z,99391.41
2023-03-25T09:20:10.913Z,99404.38
2023-03-25T09:22:38.192Z,99400.63
2023-03-25T09:25:04.632Z,99396.91
2023-03-25T09:27:31.327Z,99410.53
2023-03-25T09:29:57.823Z,99422.81
2023-03-25T09:32:24.322Z,99419.25
2023-03-25T09:34:50.802Z,99414.50
2023-03-25T09:37:17.526Z,99416.47
2023-03-25T09:39:43.947Z,99416.09
2023-03-25T09:42:10.379Z,99389.31
2023-03-25T09:44:36.848Z,99389.88
2023-03-25T09:47:03.306Z,99389.69
2023-03-25T09:49:31.633Z,99395.00
2023-03-25T09:51:58.054Z,99394.59
2023-03-25T09:54:24.481Z,99393.94
2023-03-25T09:56:51.541Z,99391.56
2023-03-25T09:59:18.119Z,99404.94
2023-03-25T10:01:44.602Z,99402.19
2023-03-25T10:04:11.121Z,99396.31
2023-03-25T10:06:37.541Z,99392.00
2023-03-25T10:09:04.526Z,99392.28
2023-03-25T10:11:31.067Z,99383.66
2023-03-25T10:13:57.504Z,99377.03
2023-03-25T10:16:23.963Z,99379.50
2023-03-25T10:18:50.595Z,99373.25
2023-03-25T10:21:17.038Z,99376.69
2023-03-25T10:23:43.512Z,99363.09
2023-03-25T10:26:09.926Z,99363.28
2023-03-25T10:28:36.915Z,99349.22
2023-03-25T10:31:03.347Z,99350.94
2023-03-25T10:33:29.764Z,99347.59
2023-03-25T10:35:56.219Z,99346.59
2023-03-25T10:38:24.369Z,99334.41
2023-03-25T10:40:51.874Z,99334.25
2023-03-25T10:43:18.329Z,99336.88
2023-03-25T10:45:44.906Z,99332.16
2023-03-25T10:48:11.547Z,99320.41
2023-03-25T10:50:38.509Z,99322.69
2023-03-25T10:53:06.792Z,99309.13
2023-03-25T10:55:35.014Z,99322.69
2023-03-25T10:58:01.972Z,99310.38
2023-03-25T11:00:30.498Z,99318.59
2023-03-25T11:02:57.330Z,99307.34
2023-03-25T11:05:23.847Z,99311.34
2023-03-25T11:07:50.840Z,99294.16
2023-03-25T11:10:17.702Z,99295.19
2023-03-25T11:12:45.568Z,99308.75
2023-03-25T11:15:12.112Z,99297.69
2023-03-25T11:17:39.911Z,99294.25
2023-03-25T11:20:11.163Z,99293.81
2023-03-25T11:22:37.634Z,99288.84
2023-03-25T11:25:04.092Z,99280.91
2023-03-25T11:27:30.754Z,99272.88
2023-03-25T11:29:57.304Z,99278.44
2023-03-25T11:32:23.782Z,99280.69
2023-03-25T11:34:50.243Z,99278.34
2023-03-25T11:37:17.188Z,99283.63
2023-03-25T11:39:43.650Z,99306.00
2023-03-25T11:42:10.068Z,99312.81
2023-03-25T11:44:36.590Z,99348.13
2023-03-25T11:47:03.011Z,99338.06
2023-03-25T11:49:29.864Z,99321.13
2023-03-25T11:51:57.442Z,99322.63
2023-03-25T11:54:23.928Z,99297.22
2023-03-25T11:56:51.050Z,99285.47
2023-03-25T11:59:17.477Z,99281.47
2023-03-25T12:01:43.897Z,99273.41
2023-03-25T12:04:10.342Z,99266.78
2023-03-25T12:06:36.842Z,99259.72
2023-03-25T12:09:03.277Z,99254.22
2023-03-25T12:11:29.718Z,99248.06
2023-03-25T12:13:56.332Z,99259.44
2023-03-25T12:16:22.843Z,99248.28
2023-03-25T12:18:49.589Z,99238.13
2023-03-25T12:21:16.063Z,99242.53
2023-03-25T12:23:42.592Z,99233.22
2023-03-25T12:26:10.996Z,99226.88
2023-03-25T12:28:37.522Z,99233.34
2023-03-25T12:31:04.540Z,99239.44
2023-03-25T12:33:30.971Z,99227.22
2023-03-25T12:35:57.413Z,99220.66
2023-03-25T12:38:23.925Z,99235.34
2023-03-25T12:40:50.469Z,99216.16
2023-03-25T12:43:17.073Z,99219.22
2023-03-25T12:45:43.593Z,99214.00
2023-03-25T12:48:10.051Z,99207.84
2023-03-25T12:50:36.656Z,99210.50
2023-03-25T12:53:04.608Z,99210.66
2023-03-25T12:55:31.229Z,99230.78
2023-03-25T12:57:57.698Z,99256.41
2023-03-25T13:00:25.692Z,99254.25
2023-03-25T13:02:52.979Z,99238.03
2023-03-25T13:05:19.614Z,99222.09
2023-03-25T13:07:46.188Z,99221.63
2023-03-25T13:10:12.603Z,99222.28
2023-03-25T13:12:40.967Z,99225.34
2023-03-25T13:15:09.683Z,99233.41
2023-03-25T13:17:36.481Z,99227.59
2023-03-25T13:20:03.906Z,99225.75
2023-03-25T13:22:30.352Z,99235.38
2023-03-25T13:24:56.856Z,99217.25
2023-03-25T13:27:23.351Z,99212.28
2023-03-25T13:29:49.759Z,99209.94
2023-03-25T13:32:16.204Z,99195.72
2023-03-25T13:34:42.630Z,99204.41
2023-03-25T13:37:09.162Z,99188.06
2023-03-25T13:39:35.641Z,99175.22
2023-03-25T13:42:02.075Z,99183.31
2023-03-25T13:44:28.496Z,99177.03
2023-03-25T13:46:54.928Z,99174.47
2023-03-25T13:49:21.455Z,99162.66
2023-03-25T13:51:48.244Z,99168.75
2023-03-25T13:54:14.831Z,99154.81
2023-03-25T13:56:41.289Z,99162.66
2023-03-25T13:59:07.745Z,99164.28
2023-03-25T14:01:34.271Z,99160.34
2023-03-25T14:04:00.961Z,99164.69
2023-03-25T14:06:29.805Z,99163.19
2023-03-25T14:08:56.302Z,99156.09
2023-03-25T14:11:22.777Z,99165.16
2023-03-25T14:13:49.215Z,99158.09
2023-03-25T14:16:16.314Z,99169.28
2023-03-25T14:18:42.947Z,99166.53
2023-03-25T14:21:09.710Z,99163.19
2023-03-25T14:23:36.448Z,99146.03
2023-03-25T14:26:02.925Z,99151.28
2023-03-25T14:28:29.355Z,99147.72
2023-03-25T14:30:56.116Z,99153.84
2023-03-25T14:33:23.243Z,99155.06
2023-03-25T14:35:49.783Z,99149.72
2023-03-25T14:38:18.284Z,99157.25
2023-03-25T14:43:16.199Z,99150.25
2023-03-25T14:45:42.679Z,99172.63
2023-03-25T14:48:22.901Z,99250.94
2023-03-25T14:50:53.723Z,99294.50
2023-03-25T14:53:20.301Z,99289.91
2023-03-25T14:55:46.711Z,99291.97
2023-03-25T14:58:13.142Z,99279.13
2023-03-25T15:00:39.561Z,99266.53
2023-03-25T15:03:06.659Z,99271.72
2023-03-25T15:05:33.587Z,99263.41
2023-03-25T15:08:00.363Z,99271.50
2023-03-25T15:10:26.857Z,99264.94
2023-03-25T15:12:53.298Z,99255.53
2023-03-25T15:15:20.221Z,99244.50
2023-03-25T15:17:46.819Z,99229.00
2023-03-25T15:20:14.596Z,99216.44
2023-03-25T15:22:41.097Z,99215.94
2023-03-25T15:25:07.531Z,99232.13
2023-03-25T15:27:33.966Z,99239.97
2023-03-25T15:30:00.377Z,99236.53
2023-03-25T15:32:27.543Z,99236.34
2023-03-25T15:34:54.471Z,99235.38
2023-03-25T15:37:20.951Z,99236.50
2023-03-25T15:39:47.409Z,99223.75
2023-03-25T15:42:13.840Z,99234.22
2023-03-25T15:44:40.278Z,99227.56
2023-03-25T15:47:06.678Z,99228.78
2023-03-25T15:49:33.123Z,99224.13
2023-03-25T15:52:02.620Z,99224.53
2023-03-25T15:54:29.266Z,99224.59
2023-03-25T15:56:57.535Z,99228.56
2023-03-25T15:59:24.030Z,99231.56
2023-03-25T16:01:51.115Z,99218.50
2023-03-25T16:04:18.848Z,99229.25
2023-03-25T16:06:45.401Z,99235.16
2023-03-25T16:09:11.824Z,99228.44
2023-03-25T16:11:38.237Z,99238.72
2023-03-25T16:14:04.908Z,99247.84
2023-03-25T16:16:34.817Z,99258.78
2023-03-25T16:19:01.950Z,99261.63
2023-03-25T16:21:28.351Z,99251.25
2023-03-25T16:23:54.772Z,99251.19
2023-03-25T16:26:21.189Z,99253.25
2023-03-25T16:28:47.681Z,99250.50
2023-03-25T16:31:14.123Z,99247.28
2023-03-25T16:33:41.342Z,99254.78
2023-03-25T16:36:07.861Z,99255.66
2023-03-25T16:38:34.405Z,99254.06
2023-03-25T16:41:01.024Z,99256.53
2023-03-25T16:43:27.699Z,99253.44
2023-03-25T16:45:54.216Z,99249.13
2023-03-25T16:48:22.470Z,99248.88
2023-03-25T16:50:49.099Z,99245.59
2023-03-25T16:53:15.936Z,99249.16
2023-03-25T16:55:42.400Z,99259.31
2023-03-25T16:58:08.833Z,99257.22
2023-03-25T17:00:35.408Z,99259.34
2023-03-25T17:03:02.103Z,99257.94
2023-03-25T17:05:29.108Z,99245.47
2023-03-25T17:07:55.545Z,99241.00
2023-03-25T17:10:21.960Z,99252.84
2023-03-25T17:12:49.068Z,99250.75
2023-03-25T17:15:15.513Z,99263.88
2023-03-25T17:17:42.102Z,99270.53
2023-03-25T17:20:09.205Z,99255.50
2023-03-25T17:22:35.657Z,99249.41
2023-03-25T17:25:02.190Z,99248.94
2023-03-25T17:27:28.930Z,99248.53
2023-03-25T17:29:55.521Z,99241.34
2023-03-25T17:32:22.044Z,99262.78
2023-03-25T17:34:52.847Z,99265.81
2023-03-25T17:37:19.268Z,99256.22
2023-03-25T17:39:47.464Z,99267.72
2023-03-25T17:42:13.880Z,99271.38
2023-03-25T17:44:40.499Z,99266.38
2023-03-25T17:47:08.480Z,99266.56
2023-03-25T17:49:34.921Z,99267.34
2023-03-25T17:52:01.470Z,99274.38
2023-03-25T17:54:27.898Z,99275.28
2023-03-25T17:56:54.431Z,99265.31
2023-03-25T17:59:21.197Z,99270.16
2023-03-25T18:01:47.798Z,99270.78
2023-03-25T18:04:15.276Z,99270.59
2023-03-25T18:06:41.836Z,99264.75
2023-03-25T18:09:09.073Z,99263.88
2023-03-25T18:11:35.520Z,99268.00
2023-03-25T18:14:01.968Z,99272.16
2023-03-25T18:16:28.378Z,99279.06
2023-03-25T18:18:54.953Z,99274.47
2023-03-25T18:21:22.744Z,99278.31
2023-03-25T18:23:49.236Z,99275.16
2023-03-25T18:26:16.292Z,99279.66
2023-03-25T18:28:43.880Z,99289.38
2023-03-25T18:31:11.632Z,99290.75
2023-03-25T18:33:38.233Z,99287.47
2023-03-25T18:36:04.706Z,99296.56
2023-03-25T18:38:31.166Z,99308.34
2023-03-25T18:40:57.661Z,99309.31
2023-03-25T18:43:24.112Z,99304.56
2023-03-25T18:45:50.612Z,99313.53
2023-03-25T18:48:17.852Z,99321.63
2023-03-25T18:50:48.486Z,99309.94
2023-03-25T18:53:14.923Z,99317.16
2023-03-25T18:55:41.593Z,99318.66
2023-03-25T18:58:08.372Z,99312.38
2023-03-25T19:00:35.077Z,99323.34
2023-03-25T19:03:01.617Z,99306.87
2023-03-25T19:05:28.385Z,99316.59
2023-03-25T19:07:54.874Z,99307.75
2023-03-25T19:10:21.471Z,99310.91
2023-03-25T19:12:47.966Z,99308.31
2023-03-25T19:15:15.467Z,99304.41
2023-03-25T19:17:41.972Z,99307.94
2023-03-25T19:20:09.228Z,99314.16
2023-03-25T19:22:35.712Z,99306.81
2023-03-25T19:25:03.340Z,99308.97
2023-03-25T19:27:29.936Z,99311.03
2023-03-25T19:29:56.461Z,99299.59
2023-03-25T19:32:23.232Z,99299.34
2023-03-25T19:34:51.585Z,99308.22
2023-03-25T19:37:18.073Z,99301.97
2023-03-25T19:39:44.513Z,99310.75
2023-03-25T19:42:10.992Z,99299.25
2023-03-25T19:44:37.477Z,99301.88
2023-03-25T19:47:04.187Z,99318.56
2023-03-25T19:49:39.147Z,99318.47
2023-03-25T19:52:06.686Z,99334.22
2023-03-25T19:54:36.401Z,99338.25
2023-03-25T19:57:02.938Z,99346.22
2023-03-25T19:59:29.409Z,99361.00
2023-03-25T20:01:55.943Z,99350.75
2023-03-25T20:04:22.364Z,99351.66
2023-03-25T20:06:48.824Z,99342.66
2023-03-25T20:09:15.315Z,99339.34
2023-03-25T20:11:41.760Z,99322.97
2023-03-25T20:14:09.418Z,99298.41
2023-03-25T20:16:36.082Z,99287.00
2023-03-25T20:19:04.407Z,99290.63
2023-03-25T20:21:31.235Z,99293.41
2023-03-25T20:23:57.781Z,99302.41
2023-03-25T20:26:24.293Z,99303.12
2023-03-25T20:28:50.784Z,99296.19
2023-03-25T20:31:18.651Z,99300.06
2023-03-25T20:33:45.259Z,99310.13
2023-03-25T20:36:11.897Z,99313.16
2023-03-25T20:38:42.010Z,99311.75
2023-03-25T20:41:13.800Z,99310.84
2023-03-25T20:43:40.273Z,99309.75
2023-03-25T20:46:06.897Z,99307.19
2023-03-25T20:48:33.792Z,99299.41
2023-03-25T20:51:00.276Z,99302.47
2023-03-25T20:53:29.363Z,99286.63
2023-03-25T20:55:56.409Z,99292.87
2023-03-25T20:58:22.946Z,99287.09
2023-03-25T21:00:49.397Z,99273.78
2023-03-25T21:03:19.044Z,99282.28
2023-03-25T21:05:45.557Z,99281.47
2023-03-25T21:08:11.972Z,99271.28
2023-03-25T21:10:38.451Z,99278.13
2023-03-25T21:13:04.993Z,99280.41
2023-03-25T21:15:31.740Z,99277.28
2023-03-25T21:17:58.186Z,99282.41
2023-03-25T21:20:27.294Z,99289.22
2023-03-25T21:22:57.321Z,99290.47
2023-03-25T21:25:23.739Z,99289.94
2023-03-25T21:27:50.159Z,99294.66
2023-03-25T21:30:16.618Z,99287.81
2023-03-25T21:32:43.099Z,99291.00
2023-03-25T21:35:09.594Z,99288.22
2023-03-25T21:37:38.117Z,99291.13
2023-03-25T21:40:04.628Z,99291.19
2023-03-25T21:42:31.101Z,99294.72
2023-03-25T21:44:58.324Z,99277.63
2023-03-25T21:47:24.847Z,99286.78
2023-03-25T21:49:51.447Z,99277.75
2023-03-25T21:52:18.097Z,99281.19
2023-03-25T21:54:44.518Z,99281.19
2023-03-25T21:57:11.583Z,99278.47
2023-03-25T21:59:38.086Z,99279.66
2023-03-25T22:02:04.591Z,99280.31
2023-03-25T22:04:34.990Z,99277.47
2023-03-25T22:07:01.836Z,99285.56
2023-03-25T22:09:28.266Z,99279.41
2023-03-25T22:11:55.872Z,99281.91
2023-03-25T22:14:22.324Z,99292.78
2023-03-25T22:16:48.787Z,99282.44
2023-03-25T22:19:15.546Z,99287.06
2023-03-25T22:21:42.291Z,99296.84
2023-03-25T22:24:08.760Z,99285.22
2023-03-25T22:26:35.381Z,99281.22
2023-03-25T22:29:01.881Z,99284.69
2023-03-25T22:31:31.030Z,99284.97
2023-03-25T22:34:03.622Z,99293.84
2023-03-25T22:36:30.484Z,99274.72
2023-03-25T22:38:56.946Z,99277.25
2023-03-25T22:41:23.363Z,99277.25
2023-03-25T22:43:49.768Z,99274.03
2023-03-25T22:46:16.234Z,99275.38
2023-03-25T22:48:42.790Z,99274.72
2023-03-25T22:51:09.209Z,99274.28
2023-03-25T22:53:35.977Z,99275.38
2023-03-25T22:56:02.538Z,99275.81
2023-03-25T22:58:28.971Z,99275.44
2023-03-25T23:00:55.416Z,99278.50
2023-03-25T23:03:21.902Z,99272.03
2023-03-25T23:05:48.473Z,99279.59
2023-03-25T23:08:14.901Z,99273.72
2023-03-25T23:10:41.337Z,99267.56
2023-03-25T23:13:08.042Z,99281.22
2023-03-25T23:15:34.453Z,99278.31
2023-03-25T23:18:00.921Z,99277.16
2023-03-25T23:20:29.482Z,99275.88
2023-03-25T23:22:56.276Z,99279.50
2023-03-25T23:25:22.706Z,99270.84
2023-03-25T23:27:50.698Z,99278.41
2023-03-25T23:30:17.420Z,99289.47
2023-03-25T23:32:43.880Z,99277.97
2023-03-25T23:35:11.131Z,99279.72
2023-03-25T23:37:37.552Z,99279.03
2023-03-25T23:40:07.448Z,99272.97
2023-03-25T23:42:35.037Z,99285.28
2023-03-25T23:45:02.516Z,99276.25
2023-03-25T23:47:29.029Z,99269.28
2023-03-25T23:49:58.148Z,99276.28
2023-03-25T23:52:24.576Z,99271.47
2023-03-25T23:54:51.016Z,99270.00
2023-03-25T23:57:17.454Z,99275.47
2023-03-25T23:59:44.355Z,99286.19
